createdAt,value
2023-03-29T00:01:10.032Z,59.99
2023-03-29T00:03:45.279Z,60.39
2023-03-29T00:06:14.726Z,60.71
2023-03-29T00:08:45.373Z,60.37
2023-03-29T00:11:13.860Z,60.29
2023-03-29T00:13:42.149Z,59.75
2023-03-29T00:16:12.498Z,59.50
2023-03-29T00:18:42.349Z,59.65
2023-03-29T00:21:12.536Z,59.83
2023-03-29T00:23:41.609Z,59.73
2023-03-29T00:26:11.246Z,59.58
2023-03-29T00:28:42.223Z,59.67
2023-03-29T00:31:12.319Z,59.83
2023-03-29T00:33:41.863Z,59.94
2023-03-29T00:36:11.988Z,60.23
2023-03-29T00:38:41.101Z,60.05
2023-03-29T00:41:10.306Z,60.07
2023-03-29T00:43:58.904Z,59.96
2023-03-29T00:46:29.450Z,59.71
2023-03-29T00:49:04.047Z,59.30
2023-03-29T00:51:35.010Z,58.82
2023-03-29T00:54:05.859Z,59.26
2023-03-29T00:56:37.115Z,59.59
2023-03-29T00:59:06.742Z,59.76
2023-03-29T01:01:41.539Z,59.73
2023-03-29T01:04:18.196Z,60.08
2023-03-29T01:06:49.499Z,60.27
2023-03-29T01:09:20.582Z,60.23
2023-03-29T01:11:51.679Z,60.88
2023-03-29T01:14:23.384Z,61.20
2023-03-29T01:16:52.896Z,61.44
2023-03-29T01:19:27.834Z,61.48
2023-03-29T01:22:03.319Z,61.52
2023-03-29T01:24:41.471Z,61.73
2023-03-29T01:27:15.176Z,62.21
2023-03-29T01:29:46.930Z,62.56
2023-03-29T01:32:17.272Z,62.88
2023-03-29T01:34:50.349Z,62.92
2023-03-29T01:37:24.134Z,63.41
2023-03-29T01:39:53.464Z,63.32
2023-03-29T01:42:28.695Z,63.49
2023-03-29T01:45:04.206Z,63.81
2023-03-29T01:47:47.813Z,63.49
2023-03-29T01:50:18.812Z,63.41
2023-03-29T01:52:51.553Z,63.34
2023-03-29T01:55:23.036Z,63.19
2023-03-29T01:57:53.901Z,63.04
2023-03-29T02:00:25.328Z,62.98
2023-03-29T02:02:55.531Z,63.10
2023-03-29T02:05:29.259Z,63.07
2023-03-29T02:07:59.841Z,62.99
2023-03-29T02:10:28.757Z,62.72
2023-03-29T02:12:58.109Z,62.22
2023-03-29T02:15:28.156Z,62.10
2023-03-29T02:17:56.861Z,61.63
2023-03-29T02:20:27.942Z,61.18
2023-03-29T02:23:01.849Z,59.56
2023-03-29T02:25:32.043Z,57.28
2023-03-29T02:28:02.084Z,57.52
2023-03-29T02:30:33.501Z,57.29
2023-03-29T02:33:05.210Z,57.00
2023-03-29T02:35:35.874Z,56.18
2023-03-29T02:38:05.941Z,56.23
2023-03-29T02:40:35.819Z,55.33
2023-03-29T02:43:06.520Z,55.90
2023-03-29T02:45:36.712Z,56.08
2023-03-29T02:48:07.988Z,56.53
2023-03-29T02:50:38.446Z,56.14
2023-03-29T02:53:12.715Z,56.26
2023-03-29T02:55:42.299Z,56.06
2023-03-29T02:58:12.946Z,54.33
2023-03-29T03:00:44.875Z,53.67
2023-03-29T03:03:15.034Z,53.28
2023-03-29T03:05:43.892Z,53.34
2023-03-29T03:08:13.547Z,53.23
2023-03-29T03:10:42.598Z,53.52
2023-03-29T03:13:12.515Z,52.92
2023-03-29T03:15:42.461Z,53.55
2023-03-29T03:18:12.728Z,53.32
2023-03-29T03:20:42.070Z,53.67
2023-03-29T03:23:11.590Z,53.97
2023-03-29T03:25:41.445Z,53.75
2023-03-29T03:28:12.135Z,54.05
2023-03-29T03:30:41.445Z,53.58
2023-03-29T03:33:11.201Z,53.57
2023-03-29T03:35:40.529Z,53.80
2023-03-29T03:38:10.453Z,53.41
2023-03-29T03:40:38.973Z,52.85
2023-03-29T03:43:08.585Z,52.54
2023-03-29T03:45:38.017Z,52.92
2023-03-29T03:48:07.254Z,52.74
2023-03-29T03:50:35.718Z,52.56
2023-03-29T03:53:04.875Z,52.34
2023-03-29T03:55:33.980Z,51.91
2023-03-29T03:58:02.706Z,52.67
2023-03-29T04:00:30.973Z,52.22
2023-03-29T04:03:01.970Z,52.07
2023-03-29T04:05:30.879Z,51.96
2023-03-29T04:08:00.280Z,52.19
2023-03-29T04:10:29.158Z,52.69
2023-03-29T04:12:58.654Z,53.08
2023-03-29T04:15:28.387Z,53.58
2023-03-29T04:17:56.916Z,52.47
2023-03-29T04:20:25.868Z,52.59
2023-03-29T04:22:55.397Z,52.70
2023-03-29T04:25:24.732Z,52.96
2023-03-29T04:27:53.075Z,52.68
2023-03-29T04:30:21.543Z,52.19
2023-03-29T04:32:50.161Z,52.36
2023-03-29T04:35:18.565Z,52.25
2023-03-29T04:37:48.247Z,52.51
2023-03-29T04:40:19.257Z,52.91
2023-03-29T04:42:47.699Z,53.19
2023-03-29T04:45:17.402Z,52.83
2023-03-29T04:47:47.741Z,52.97
2023-03-29T04:50:16.436Z,52.72
2023-03-29T04:52:45.322Z,52.66
2023-03-29T04:55:14.320Z,52.62
2023-03-29T04:57:44.102Z,52.45
2023-03-29T05:00:15.004Z,52.54
2023-03-29T05:02:44.231Z,52.13
2023-03-29T05:05:13.989Z,52.09
2023-03-29T05:07:43.786Z,51.93
2023-03-29T05:10:13.508Z,52.29
2023-03-29T05:12:44.088Z,52.26
2023-03-29T05:15:14.360Z,52.24
2023-03-29T05:17:43.365Z,52.47
2023-03-29T05:20:13.093Z,52.02
2023-03-29T05:22:43.757Z,51.98
2023-03-29T05:25:13.057Z,52.00
2023-03-29T05:27:42.793Z,51.34
2023-03-29T05:30:14.742Z,51.12
2023-03-29T05:32:43.229Z,51.04
2023-03-29T05:35:13.834Z,50.69
2023-03-29T05:37:43.314Z,50.74
2023-03-29T05:40:12.967Z,50.30
2023-03-29T05:42:43.958Z,50.56
2023-03-29T05:45:13.150Z,50.70
2023-03-29T05:47:43.658Z,50.27
2023-03-29T05:50:13.330Z,49.60
2023-03-29T05:52:44.180Z,50.01
2023-03-29T05:55:13.315Z,49.55
2023-03-29T05:57:44.103Z,49.09
2023-03-29T06:00:19.433Z,49.24
2023-03-29T06:02:47.965Z,49.55
2023-03-29T06:05:16.763Z,47.65
2023-03-29T06:07:45.271Z,48.21
2023-03-29T06:10:13.739Z,48.45
2023-03-29T06:12:42.989Z,48.31
2023-03-29T06:15:13.598Z,47.59
2023-03-29T06:17:44.396Z,47.83
2023-03-29T06:20:14.342Z,47.35
2023-03-29T06:22:46.182Z,48.03
2023-03-29T06:25:17.050Z,49.12
2023-03-29T06:27:48.109Z,47.87
2023-03-29T06:30:16.974Z,47.85
2023-03-29T06:32:45.671Z,47.40
2023-03-29T06:35:14.592Z,47.50
2023-03-29T06:37:48.969Z,48.61
2023-03-29T06:40:18.626Z,49.57
2023-03-29T06:42:47.423Z,49.38
2023-03-29T06:45:16.456Z,49.39
2023-03-29T06:47:47.052Z,49.55
2023-03-29T06:50:16.909Z,48.71
2023-03-29T06:52:47.352Z,48.49
2023-03-29T06:55:15.971Z,49.23
2023-03-29T06:57:44.265Z,48.96
2023-03-29T07:00:15.962Z,46.00
2023-03-29T07:02:45.235Z,46.56
2023-03-29T07:05:14.411Z,48.16
2023-03-29T07:07:56.046Z,48.38
2023-03-29T07:10:25.924Z,48.38
2023-03-29T07:12:54.807Z,47.56
2023-03-29T07:15:23.362Z,47.42
2023-03-29T07:17:51.849Z,47.82
2023-03-29T07:20:22.425Z,46.59
2023-03-29T07:22:51.572Z,47.09
2023-03-29T07:25:21.761Z,46.47
2023-03-29T07:27:51.556Z,45.81
2023-03-29T07:30:23.171Z,44.64
2023-03-29T07:32:53.040Z,44.56
2023-03-29T07:35:22.700Z,45.83
2023-03-29T07:37:51.203Z,45.57
2023-03-29T07:40:22.860Z,46.55
2023-03-29T07:42:52.597Z,46.46
2023-03-29T07:45:26.625Z,46.53
2023-03-29T07:47:57.764Z,46.34
2023-03-29T07:50:26.917Z,45.37
2023-03-29T07:52:56.321Z,44.88
2023-03-29T07:55:24.684Z,43.33
2023-03-29T07:57:53.136Z,45.38
2023-03-29T08:00:24.336Z,44.55
2023-03-29T08:02:52.932Z,41.12
2023-03-29T08:05:33.838Z,41.93
2023-03-29T08:08:10.178Z,43.73
2023-03-29T08:10:39.551Z,40.91
2023-03-29T08:13:08.738Z,42.33
2023-03-29T08:15:38.668Z,40.26
2023-03-29T08:18:08.064Z,41.35
2023-03-29T08:20:36.605Z,40.91
2023-03-29T08:23:05.095Z,39.47
2023-03-29T08:25:34.639Z,39.81
2023-03-29T08:28:02.956Z,40.74
2023-03-29T08:30:31.178Z,41.72
2023-03-29T08:32:59.392Z,42.22
2023-03-29T08:35:27.647Z,41.88
2023-03-29T08:37:55.988Z,42.36
2023-03-29T08:40:26.731Z,42.53
2023-03-29T08:43:14.793Z,42.31
2023-03-29T08:45:51.012Z,41.45
2023-03-29T08:48:23.146Z,41.71
2023-03-29T08:50:54.325Z,41.74
2023-03-29T08:53:28.119Z,41.90
2023-03-29T08:55:58.096Z,41.85
2023-03-29T08:58:29.446Z,41.10
2023-03-29T09:01:01.730Z,41.43
2023-03-29T09:03:32.318Z,41.08
2023-03-29T09:06:04.095Z,41.02
2023-03-29T09:08:35.284Z,40.30
2023-03-29T09:11:13.546Z,40.04
2023-03-29T09:13:52.677Z,40.61
2023-03-29T09:16:26.908Z,40.29
2023-03-29T09:19:02.755Z,37.17
2023-03-29T09:21:34.199Z,35.55
2023-03-29T09:24:09.733Z,36.93
2023-03-29T09:26:40.248Z,36.81
2023-03-29T09:29:15.386Z,36.74
2023-03-29T09:31:44.548Z,36.83
2023-03-29T09:34:15.924Z,37.65
2023-03-29T09:36:49.892Z,35.34
2023-03-29T09:39:20.282Z,34.83
2023-03-29T09:41:52.058Z,36.50
2023-03-29T09:44:30.918Z,38.72
2023-03-29T09:47:03.424Z,38.84
2023-03-29T09:49:34.586Z,38.44
2023-03-29T09:52:05.638Z,38.38
2023-03-29T09:54:35.140Z,38.69
2023-03-29T09:57:04.054Z,37.83
2023-03-29T09:59:32.884Z,37.06
2023-03-29T10:02:06.851Z,38.22
2023-03-29T10:04:35.337Z,39.11
2023-03-29T10:07:04.227Z,39.14
2023-03-29T10:09:33.714Z,38.92
2023-03-29T10:12:06.166Z,39.21
2023-03-29T10:14:36.472Z,38.88
2023-03-29T10:17:07.237Z,38.86
2023-03-29T10:19:36.134Z,35.77
2023-03-29T10:22:07.020Z,36.15
2023-03-29T10:24:35.761Z,37.56
2023-03-29T10:27:07.282Z,37.44
2023-03-29T10:29:37.407Z,36.82
2023-03-29T10:32:15.690Z,36.00
2023-03-29T10:34:46.492Z,34.41
2023-03-29T10:37:18.537Z,37.56
2023-03-29T10:39:47.984Z,38.59
2023-03-29T10:42:18.329Z,39.28
2023-03-29T10:44:53.813Z,39.27
2023-03-29T10:47:22.745Z,37.94
2023-03-29T10:49:55.148Z,38.50
2023-03-29T10:52:25.581Z,37.37
2023-03-29T10:54:54.974Z,37.96
2023-03-29T10:57:27.254Z,38.09
2023-03-29T10:59:59.912Z,37.96
2023-03-29T11:02:45.484Z,38.11
2023-03-29T11:05:28.803Z,37.50
2023-03-29T11:08:06.423Z,34.57
2023-03-29T11:10:39.574Z,34.35
2023-03-29T11:13:12.677Z,35.29
2023-03-29T11:15:46.429Z,36.99
2023-03-29T11:18:35.024Z,37.19
2023-03-29T11:21:10.718Z,37.13
2023-03-29T11:23:46.588Z,37.37
2023-03-29T11:26:18.169Z,36.20
2023-03-29T11:28:50.243Z,34.35
2023-03-29T11:31:23.481Z,35.82
2023-03-29T11:33:58.108Z,35.01
2023-03-29T11:36:31.735Z,35.34
2023-03-29T11:39:04.524Z,36.20
2023-03-29T11:41:34.911Z,36.00
2023-03-29T11:44:05.820Z,35.69
2023-03-29T11:46:37.448Z,35.05
2023-03-29T11:49:10.068Z,34.53
2023-03-29T11:51:42.037Z,34.50
2023-03-29T11:54:14.486Z,33.72
2023-03-29T11:56:44.950Z,30.10
2023-03-29T11:59:17.461Z,30.25
2023-03-29T12:01:49.080Z,29.51
2023-03-29T12:04:25.053Z,31.79
2023-03-29T12:06:58.503Z,32.53
2023-03-29T12:09:34.256Z,29.78
2023-03-29T12:12:07.137Z,32.08
2023-03-29T12:14:42.731Z,30.75
2023-03-29T12:17:13.658Z,31.77
2023-03-29T12:19:47.185Z,32.39
2023-03-29T12:22:20.225Z,32.11
2023-03-29T12:24:52.296Z,32.09
2023-03-29T12:27:25.581Z,32.28
2023-03-29T12:30:10.610Z,31.57
2023-03-29T12:32:46.371Z,29.06
2023-03-29T12:35:46.477Z,27.61
2023-03-29T12:38:20.799Z,30.88
2023-03-29T12:40:55.573Z,30.88
2023-03-29T12:43:25.895Z,29.78
2023-03-29T12:45:56.101Z,30.92
2023-03-29T12:48:26.907Z,30.75
2023-03-29T12:51:00.496Z,30.05
2023-03-29T12:53:33.350Z,29.79
2023-03-29T12:56:09.567Z,30.50
2023-03-29T12:58:42.391Z,30.47
2023-03-29T13:01:25.941Z,30.74
2023-03-29T13:04:14.055Z,30.86
2023-03-29T13:06:55.758Z,30.73
2023-03-29T13:09:30.015Z,30.52
2023-03-29T13:12:04.319Z,30.29
2023-03-29T13:14:38.127Z,30.51
2023-03-29T13:17:18.272Z,29.77
2023-03-29T13:19:55.381Z,29.90
2023-03-29T13:22:42.092Z,29.95
2023-03-29T13:25:21.403Z,30.05
2023-03-29T13:28:01.035Z,30.26
2023-03-29T13:30:46.735Z,28.72
2023-03-29T13:33:35.212Z,26.40
2023-03-29T13:36:17.054Z,28.91
2023-03-29T13:38:54.845Z,29.61
2023-03-29T13:41:28.859Z,29.04
2023-03-29T13:43:58.183Z,29.16
2023-03-29T13:46:41.139Z,28.97
2023-03-29T13:49:19.110Z,29.11
2023-03-29T13:52:03.274Z,29.15
2023-03-29T13:54:33.838Z,29.13
2023-03-29T13:57:05.075Z,29.02
2023-03-29T13:59:38.911Z,28.28
2023-03-29T14:02:13.874Z,28.43
2023-03-29T14:04:45.604Z,28.38
2023-03-29T14:07:26.960Z,28.24
2023-03-29T14:10:00.969Z,27.83
2023-03-29T14:12:34.132Z,28.05
2023-03-29T14:15:04.446Z,27.89
2023-03-29T14:17:36.111Z,27.93
2023-03-29T14:20:09.308Z,27.75
2023-03-29T14:22:43.556Z,27.75
2023-03-29T14:25:18.344Z,27.56
2023-03-29T14:27:48.637Z,26.86
2023-03-29T14:30:22.378Z,27.09
2023-03-29T14:32:52.087Z,26.52
2023-03-29T14:35:27.452Z,26.76
2023-03-29T14:37:57.498Z,26.80
2023-03-29T14:40:27.145Z,25.63
2023-03-29T14:42:58.220Z,24.85
2023-03-29T14:45:29.410Z,25.39
2023-03-29T14:47:59.063Z,24.96
2023-03-29T14:50:30.838Z,25.24
2023-03-29T14:53:02.276Z,25.15
2023-03-29T14:55:36.137Z,24.90
2023-03-29T14:58:27.049Z,24.72
2023-03-29T15:00:55.547Z,25.08
2023-03-29T15:03:42.477Z,25.04
2023-03-29T15:06:18.556Z,24.46
2023-03-29T15:09:05.978Z,24.37
2023-03-29T15:11:39.278Z,24.17
2023-03-29T15:14:53.065Z,24.04
2023-03-29T15:17:42.650Z,24.14
2023-03-29T15:20:20.936Z,23.98
2023-03-29T15:22:56.575Z,23.94
2023-03-29T15:25:36.448Z,23.76
2023-03-29T15:28:42.184Z,23.63
2023-03-29T15:31:15.077Z,23.61
2023-03-29T15:33:47.266Z,23.32
2023-03-29T15:36:28.125Z,23.20
2023-03-29T15:39:02.911Z,23.19
2023-03-29T15:41:34.717Z,22.43
2023-03-29T15:44:08.672Z,22.66
2023-03-29T15:46:43.253Z,22.50
2023-03-29T15:49:20.211Z,22.58
2023-03-29T15:51:55.127Z,22.35
2023-03-29T15:54:28.511Z,22.42
2023-03-29T15:57:02.026Z,22.44
2023-03-29T15:59:43.071Z,21.78
2023-03-29T16:02:25.820Z,22.25
2023-03-29T16:04:57.949Z,21.87
2023-03-29T16:07:26.453Z,22.18
2023-03-29T16:09:56.673Z,22.06
2023-03-29T16:12:28.252Z,22.40
2023-03-29T16:14:59.152Z,22.08
2023-03-29T16:17:30.531Z,22.34
2023-03-29T16:20:04.475Z,22.48
2023-03-29T16:22:37.766Z,22.55
2023-03-29T16:25:16.533Z,22.62
2023-03-29T16:27:53.692Z,22.86
2023-03-29T16:30:26.657Z,22.85
2023-03-29T16:32:58.498Z,23.04
2023-03-29T16:35:35.957Z,23.22
2023-03-29T16:38:14.021Z,23.43
2023-03-29T16:40:47.813Z,23.49
2023-03-29T16:43:18.744Z,23.51
2023-03-29T16:45:50.736Z,23.78
2023-03-29T16:48:21.828Z,23.91
2023-03-29T16:51:00.062Z,24.10
2023-03-29T16:53:34.004Z,24.12
2023-03-29T16:56:03.089Z,24.16
2023-03-29T16:58:31.687Z,24.27
2023-03-29T17:01:09.180Z,24.29
2023-03-29T17:03:37.815Z,24.39
2023-03-29T17:06:07.395Z,24.51
2023-03-29T17:08:36.023Z,24.62
2023-03-29T17:11:05.796Z,24.67
2023-03-29T17:13:34.542Z,24.85
2023-03-29T17:16:03.622Z,25.01
2023-03-29T17:18:32.746Z,25.03
2023-03-29T17:21:01.114Z,25.09
2023-03-29T17:23:29.727Z,25.22
2023-03-29T17:25:58.266Z,25.45
2023-03-29T17:28:26.678Z,25.51
2023-03-29T17:30:55.397Z,25.50
2023-03-29T17:33:25.667Z,25.42
2023-03-29T17:35:55.618Z,25.57
2023-03-29T17:38:25.093Z,25.84
2023-03-29T17:40:53.611Z,25.83
2023-03-29T17:43:22.346Z,25.97
2023-03-29T17:45:51.653Z,26.06
2023-03-29T17:48:23.023Z,26.20
2023-03-29T17:50:52.439Z,26.31
2023-03-29T17:53:21.087Z,26.32
2023-03-29T17:55:51.943Z,26.55
2023-03-29T17:58:21.582Z,26.70
2023-03-29T18:00:51.423Z,26.79
2023-03-29T18:03:20.688Z,26.67
2023-03-29T18:05:49.959Z,26.72
2023-03-29T18:08:19.137Z,26.76
2023-03-29T18:10:48.918Z,26.87
2023-03-29T18:13:18.380Z,26.87
2023-03-29T18:15:47.240Z,27.03
2023-03-29T18:18:16.240Z,27.43
2023-03-29T18:20:45.595Z,27.68
2023-03-29T18:23:14.424Z,28.09
2023-03-29T18:25:43.054Z,28.47
2023-03-29T18:28:12.077Z,28.44
2023-03-29T18:30:40.509Z,28.27
2023-03-29T18:33:09.486Z,27.92
2023-03-29T18:35:39.734Z,27.82
2023-03-29T18:38:08.310Z,27.91
2023-03-29T18:40:38.602Z,27.92
2023-03-29T18:43:07.915Z,27.82
2023-03-29T18:45:37.039Z,27.88
2023-03-29T18:48:08.934Z,28.03
2023-03-29T18:50:38.305Z,28.00
2023-03-29T18:53:06.953Z,27.93
2023-03-29T18:55:38.105Z,28.00
2023-03-29T18:58:06.649Z,28.19
2023-03-29T19:00:34.984Z,28.42
2023-03-29T19:03:04.173Z,28.56
2023-03-29T19:05:34.725Z,28.66
2023-03-29T19:08:05.411Z,28.75
2023-03-29T19:10:35.881Z,28.93
2023-03-29T19:13:05.706Z,28.93
2023-03-29T19:15:34.096Z,29.24
2023-03-29T19:18:02.985Z,29.35
2023-03-29T19:20:31.648Z,29.35
2023-03-29T19:23:02.303Z,29.35
2023-03-29T19:25:31.757Z,29.40
2023-03-29T19:28:02.883Z,29.31
2023-03-29T19:30:35.989Z,29.51
2023-03-29T19:33:04.524Z,29.67
2023-03-29T19:35:33.172Z,29.94
2023-03-29T19:38:01.773Z,29.98
2023-03-29T19:40:30.440Z,30.21
2023-03-29T19:42:58.784Z,30.26
2023-03-29T19:45:27.468Z,30.12
2023-03-29T19:47:57.518Z,30.08
2023-03-29T19:50:26.212Z,30.25
2023-03-29T19:52:56.696Z,30.05
2023-03-29T19:55:26.309Z,29.97
2023-03-29T19:57:55.018Z,30.12
2023-03-29T20:00:24.753Z,30.00
2023-03-29T20:02:54.969Z,30.05
2023-03-29T20:05:23.960Z,30.34
2023-03-29T20:07:53.821Z,30.56
2023-03-29T20:10:23.428Z,30.42
2023-03-29T20:12:51.862Z,30.46
2023-03-29T20:15:20.535Z,30.32
2023-03-29T20:17:52.424Z,29.95
2023-03-29T20:20:23.604Z,30.09
2023-03-29T20:22:53.527Z,29.87
2023-03-29T20:25:22.025Z,30.11
2023-03-29T20:27:51.080Z,30.15
2023-03-29T20:30:20.442Z,30.04
2023-03-29T20:32:51.793Z,30.52
2023-03-29T20:35:20.810Z,30.78
2023-03-29T20:37:51.669Z,31.18
2023-03-29T20:40:22.401Z,31.35
2023-03-29T20:42:53.538Z,30.95
2023-03-29T20:45:21.868Z,30.97
2023-03-29T20:47:55.637Z,30.92
2023-03-29T20:50:26.111Z,30.98
2023-03-29T20:52:54.837Z,30.88
2023-03-29T20:55:23.933Z,30.88
2023-03-29T20:57:53.929Z,31.08
2023-03-29T21:00:23.257Z,31.28
2023-03-29T21:02:52.303Z,31.42
2023-03-29T21:05:20.956Z,31.44
2023-03-29T21:07:50.532Z,31.61
2023-03-29T21:10:20.195Z,31.33
2023-03-29T21:12:49.912Z,31.24
2023-03-29T21:15:19.214Z,31.30
2023-03-29T21:17:49.002Z,31.52
2023-03-29T21:20:19.141Z,31.27
2023-03-29T21:22:47.340Z,31.34
2023-03-29T21:25:16.614Z,31.41
2023-03-29T21:27:45.101Z,31.66
2023-03-29T21:30:13.817Z,31.56
2023-03-29T21:32:42.325Z,31.69
2023-03-29T21:35:11.214Z,31.68
2023-03-29T21:37:39.467Z,31.61
2023-03-29T21:40:10.107Z,31.71
2023-03-29T21:42:38.541Z,31.73
2023-03-29T21:45:08.410Z,32.15
2023-03-29T21:47:37.111Z,32.41
2023-03-29T21:50:06.573Z,32.32
2023-03-29T21:52:37.296Z,32.35
2023-03-29T21:55:06.099Z,32.60
2023-03-29T21:57:34.658Z,33.27
2023-03-29T22:00:04.621Z,33.15
2023-03-29T22:02:33.260Z,33.37
2023-03-29T22:05:01.940Z,33.84
2023-03-29T22:07:30.264Z,34.29
2023-03-29T22:10:03.661Z,34.21
2023-03-29T22:12:34.072Z,34.53
2023-03-29T22:15:02.480Z,35.03
2023-03-29T22:17:30.787Z,35.55
2023-03-29T22:20:02.155Z,36.05
2023-03-29T22:22:30.502Z,36.09
2023-03-29T22:24:58.937Z,36.27
2023-03-29T22:27:27.714Z,36.61
2023-03-29T22:29:55.916Z,37.11
2023-03-29T22:32:24.170Z,35.91
2023-03-29T22:34:53.081Z,35.68
2023-03-29T22:37:22.057Z,35.51
2023-03-29T22:39:51.260Z,35.19
2023-03-29T22:42:22.398Z,34.90
2023-03-29T22:44:51.482Z,34.75
2023-03-29T22:47:20.899Z,34.96
2023-03-29T22:49:52.747Z,35.15
2023-03-29T22:52:22.367Z,35.01
2023-03-29T22:54:51.340Z,35.08
2023-03-29T22:57:20.508Z,35.00
2023-03-29T22:59:49.849Z,34.78
2023-03-29T23:02:18.320Z,34.89
2023-03-29T23:04:47.578Z,35.17
2023-03-29T23:07:16.828Z,35.14
2023-03-29T23:09:49.423Z,35.42
2023-03-29T23:12:17.774Z,35.39
2023-03-29T23:14:46.990Z,35.50
2023-03-29T23:17:19.560Z,35.56
2023-03-29T23:19:48.146Z,35.31
2023-03-29T23:22:17.349Z,35.45
2023-03-29T23:24:46.755Z,35.83
2023-03-29T23:27:15.476Z,36.12
2023-03-29T23:29:44.817Z,36.00
2023-03-29T23:32:13.542Z,35.93
2023-03-29T23:34:42.053Z,36.03
2023-03-29T23:37:10.325Z,36.03
2023-03-29T23:39:39.077Z,36.01
2023-03-29T23:42:07.694Z,36.01
2023-03-29T23:44:37.155Z,36.12
2023-03-29T23:47:06.534Z,36.23
2023-03-29T23:49:35.740Z,36.53
2023-03-29T23:52:04.323Z,36.68
2023-03-29T23:54:33.052Z,36.56
2023-03-29T23:57:01.372Z,36.61
2023-03-29T23:59:30.608Z,36.97
